createdAt,value
2022-09-13T00:01:37.903Z,12994
2022-09-13T00:06:50.331Z,13087
2022-09-13T00:12:02.583Z,13066
2022-09-13T00:17:14.623Z,13067
2022-09-13T00:22:26.885Z,13079
2022-09-13T00:27:39.223Z,13065
2022-09-13T00:32:51.394Z,13065
2022-09-13T00:38:03.558Z,13008
2022-09-13T00:43:15.542Z,13073
2022-09-13T00:48:27.512Z,13022
2022-09-13T00:53:39.428Z,13103
2022-09-13T00:58:51.494Z,13092
2022-09-13T01:04:03.644Z,13053
2022-09-13T01:09:16.000Z,13085
2022-09-13T01:14:28.193Z,13101
2022-09-13T01:19:40.303Z,13066
2022-09-13T01:24:52.437Z,13124
2022-09-13T01:30:04.781Z,13054
2022-09-13T01:35:16.889Z,13048
2022-09-13T01:40:29.195Z,13034
2022-09-13T01:45:41.433Z,13031
2022-09-13T01:50:53.939Z,13022
2022-09-13T01:56:06.475Z,13060
2022-09-13T02:01:18.946Z,13079
2022-09-13T02:06:31.230Z,13047
2022-09-13T02:11:43.334Z,13039
2022-09-13T02:16:55.473Z,13043
2022-09-13T02:22:07.559Z,13027
2022-09-13T02:27:19.871Z,13079
2022-09-13T02:32:31.908Z,13099
2022-09-13T02:37:43.877Z,13105
2022-09-13T02:42:56.042Z,13054
2022-09-13T02:48:08.238Z,13059
2022-09-13T02:53:20.197Z,13077
2022-09-13T02:58:32.391Z,13062
2022-09-13T03:03:44.566Z,13034
2022-09-13T03:08:56.706Z,13100
2022-09-13T03:14:08.995Z,13025
2022-09-13T03:19:21.107Z,13032
2022-09-13T03:24:32.888Z,13048
2022-09-13T03:29:45.176Z,13070
2022-09-13T03:34:57.407Z,13064
2022-09-13T03:40:09.594Z,13052
2022-09-13T03:45:22.013Z,13063
2022-09-13T03:50:34.227Z,12975
2022-09-13T03:55:46.211Z,13086
2022-09-13T04:00:58.691Z,13101
2022-09-13T04:06:10.928Z,13092
2022-09-13T04:11:22.907Z,13032
2022-09-13T04:16:35.071Z,13035
2022-09-13T04:21:47.318Z,13088
2022-09-13T04:26:59.479Z,13060
2022-09-13T04:32:11.441Z,13016
2022-09-13T04:37:23.508Z,13051
2022-09-13T04:42:35.511Z,13054
2022-09-13T04:47:47.549Z,13047
2022-09-13T04:52:59.589Z,13053
2022-09-13T04:58:11.758Z,13068
2022-09-13T05:03:23.981Z,13056
2022-09-13T05:08:36.007Z,13058
2022-09-13T05:13:47.978Z,13089
2022-09-13T05:19:00.226Z,13136
2022-09-13T05:24:12.357Z,13111
2022-09-13T05:29:24.427Z,13076
2022-09-13T05:34:36.529Z,13000
2022-09-13T05:40:12.166Z,13123
2022-09-13T05:45:21.085Z,13113
2022-09-13T05:50:58.804Z,13108
2022-09-13T05:56:06.736Z,13115
2022-09-13T06:01:18.914Z,13087
2022-09-13T06:06:31.381Z,13070
2022-09-13T06:11:43.507Z,13122
2022-09-13T06:16:55.646Z,13143
2022-09-13T06:22:08.032Z,13208
2022-09-13T06:27:20.327Z,13165
2022-09-13T06:32:32.476Z,13198
2022-09-13T06:37:44.732Z,13186
2022-09-13T06:42:56.939Z,13176
2022-09-13T06:48:09.085Z,13180
2022-09-13T06:53:21.586Z,13176
2022-09-13T06:58:33.771Z,13176
2022-09-13T07:03:45.986Z,13184
2022-09-13T07:08:58.576Z,13255
2022-09-13T07:14:10.968Z,13215
2022-09-13T07:19:23.226Z,13192
2022-09-13T07:24:35.400Z,13181
2022-09-13T07:29:47.996Z,13217
2022-09-13T07:35:00.316Z,13210
2022-09-13T07:40:12.961Z,13249
2022-09-13T07:45:25.426Z,13122
2022-09-13T07:50:37.726Z,13294
2022-09-13T07:55:50.231Z,13272
2022-09-13T08:01:03.144Z,13286
2022-09-13T08:06:15.767Z,13157
2022-09-13T08:11:28.419Z,13273
2022-09-13T08:16:40.726Z,13280
2022-09-13T08:21:53.076Z,13181
2022-09-13T08:27:05.392Z,13194
2022-09-13T08:32:17.847Z,13201
2022-09-13T08:37:30.168Z,13098
2022-09-13T08:42:42.887Z,13315
2022-09-13T08:47:55.436Z,13243
2022-09-13T08:53:07.947Z,13222
2022-09-13T08:58:20.353Z,13220
2022-09-13T09:03:33.046Z,13168
2022-09-13T09:08:45.316Z,13184
2022-09-13T09:13:57.717Z,13189
2022-09-13T09:19:10.017Z,13021
2022-09-13T09:24:22.505Z,13195
2022-09-13T09:29:35.380Z,13222
2022-09-13T09:34:47.985Z,13138
2022-09-13T09:40:00.810Z,13191
2022-09-13T09:45:13.919Z,13141
2022-09-13T09:50:26.624Z,13156
2022-09-13T09:55:39.587Z,13095
2022-09-13T10:00:52.403Z,13267
2022-09-13T10:06:05.365Z,13160
2022-09-13T10:11:18.035Z,13111
2022-09-13T10:16:31.455Z,13203
2022-09-13T10:21:44.583Z,13234
2022-09-13T10:26:57.578Z,13119
2022-09-13T10:32:10.559Z,13093
2022-09-13T10:37:23.543Z,13113
2022-09-13T10:42:36.473Z,13042
2022-09-13T10:47:49.785Z,13182
2022-09-13T10:53:02.943Z,13099
2022-09-13T10:58:15.734Z,13212
2022-09-13T11:03:28.796Z,13139
2022-09-13T11:08:42.237Z,13221
2022-09-13T11:13:56.474Z,13248
2022-09-13T11:19:11.391Z,14514
2022-09-13T11:24:26.775Z,14572
2022-09-13T11:29:42.674Z,13806
2022-09-13T11:45:22.754Z,13660
2022-09-13T11:50:36.758Z,13070
2022-09-13T11:55:50.717Z,13764
2022-09-13T12:01:03.442Z,13466
2022-09-13T12:06:16.294Z,13366
2022-09-13T12:16:40.840Z,13065
2022-09-13T12:27:03.969Z,13150
2022-09-13T12:32:16.708Z,13474
2022-09-13T12:42:41.367Z,13095
2022-09-13T12:53:05.513Z,13634
2022-09-13T13:08:41.072Z,13295
2022-09-13T13:13:53.219Z,13615
2022-09-13T13:29:47.071Z,13526
2022-09-13T13:45:22.164Z,13097
2022-09-13T13:50:41.301Z,12931
2022-09-13T13:55:53.990Z,13026
2022-09-13T14:01:06.746Z,13218
2022-09-13T14:16:41.154Z,13109
2022-09-13T14:32:15.773Z,13000
2022-09-13T14:53:01.112Z,12935
2022-09-13T14:58:13.771Z,12996
2022-09-13T15:03:26.510Z,12889
2022-09-13T15:18:59.488Z,13166
2022-09-13T15:29:22.341Z,13048
2022-09-13T15:34:34.925Z,13031
2022-09-13T15:39:48.882Z,12989
2022-09-13T15:50:12.024Z,13075
2022-09-13T16:00:35.079Z,12932
2022-09-13T16:05:47.462Z,12955
2022-09-13T16:11:00.162Z,12923
2022-09-13T16:21:22.777Z,13029
2022-09-13T16:26:35.620Z,12939
2022-09-13T16:31:48.302Z,13023
2022-09-13T16:37:01.033Z,12997
2022-09-13T16:42:13.591Z,12941
2022-09-13T16:47:26.011Z,12967
2022-09-13T16:52:38.587Z,12959
2022-09-13T16:57:51.130Z,12990
2022-09-13T17:08:14.044Z,13124
2022-09-13T17:18:36.671Z,12995
2022-09-13T17:23:49.603Z,12943
2022-09-13T17:29:02.602Z,13079
2022-09-13T17:34:15.532Z,13028
2022-09-13T17:39:28.142Z,12969
2022-09-13T17:44:42.691Z,13055
2022-09-13T17:49:55.212Z,12938
2022-09-13T17:55:07.797Z,13030
2022-09-13T18:00:20.122Z,13011
2022-09-13T18:05:32.613Z,13058
2022-09-13T18:11:13.510Z,13001
2022-09-13T18:16:29.704Z,13094
2022-09-13T18:21:42.361Z,13027
2022-09-13T18:26:55.495Z,13012
2022-09-13T18:32:07.962Z,13018
2022-09-13T18:37:20.442Z,13061
2022-09-13T18:42:33.875Z,13069
2022-09-13T18:47:46.441Z,12972
2022-09-13T18:52:59.391Z,13109
2022-09-13T18:58:14.106Z,13043
2022-09-13T19:03:28.159Z,13049
2022-09-13T19:08:46.757Z,12988
2022-09-13T19:13:59.935Z,13099
2022-09-13T19:19:14.771Z,13077
2022-09-13T19:24:30.141Z,13093
2022-09-13T19:29:44.958Z,13061
2022-09-13T19:34:57.350Z,13033
2022-09-13T19:40:09.926Z,13077
2022-09-13T19:45:23.104Z,13034
2022-09-13T19:50:35.620Z,13061
2022-09-13T19:55:48.131Z,13052
2022-09-13T20:01:00.668Z,12963
2022-09-13T20:06:13.241Z,13013
2022-09-13T20:11:25.813Z,13038
2022-09-13T20:16:39.411Z,13016
2022-09-13T20:21:52.121Z,12972
2022-09-13T20:27:05.433Z,13014
2022-09-13T20:32:23.189Z,13021
2022-09-13T20:37:36.302Z,13050
2022-09-13T20:42:49.101Z,13068
2022-09-13T20:48:01.902Z,13000
2022-09-13T20:53:14.481Z,13050
2022-09-13T20:58:26.920Z,12935
2022-09-13T21:03:40.944Z,13093
2022-09-13T21:08:53.716Z,13042
2022-09-13T21:14:06.012Z,13033
2022-09-13T21:19:18.742Z,13037
2022-09-13T21:24:31.101Z,13053
2022-09-13T21:29:43.682Z,13055
2022-09-13T21:34:57.314Z,12947
2022-09-13T21:40:14.167Z,13065
2022-09-13T21:45:26.722Z,13117
2022-09-13T21:50:39.071Z,12964
2022-09-13T21:55:51.386Z,13073
2022-09-13T22:01:04.053Z,13053
2022-09-13T22:06:16.870Z,13048
2022-09-13T22:11:29.076Z,13058
2022-09-13T22:16:41.430Z,13037
2022-09-13T22:21:53.689Z,13079
2022-09-13T22:27:05.877Z,13066
2022-09-13T22:32:24.510Z,13015
2022-09-13T22:37:40.144Z,13051
2022-09-13T22:42:52.357Z,13030
2022-09-13T22:48:05.107Z,13023
2022-09-13T22:53:24.306Z,13069
2022-09-13T22:58:36.497Z,13078
2022-09-13T23:03:48.913Z,13051
2022-09-13T23:09:01.730Z,13002
2022-09-13T23:14:13.867Z,13085
2022-09-13T23:19:26.158Z,12969
2022-09-13T23:24:38.430Z,13169
2022-09-13T23:29:50.637Z,13026
2022-09-13T23:35:02.718Z,13027
2022-09-13T23:40:15.181Z,12999
2022-09-13T23:45:27.643Z,13109
2022-09-13T23:50:39.696Z,13044
2022-09-13T23:55:51.640Z,12991
